sensor_id;sensor_type;location;lat;lon;timestamp;pressure;altitude;pressure_sealevel;temperature;humidity
55759;BME280;41678;52.126;20.664;2022-08-21T00:03:22;99943.38;;;22.29;71.00
55759;BME280;41678;52.126;20.664;2022-08-21T00:08:42;99950.13;;;22.21;71.13
55759;BME280;41678;52.126;20.664;2022-08-21T00:14:05;99952.88;;;22.20;71.43
55759;BME280;41678;52.126;20.664;2022-08-21T00:19:25;99956.94;;;22.13;71.41
55759;BME280;41678;52.126;20.664;2022-08-21T00:24:45;99958.56;;;22.15;71.41
55759;BME280;41678;52.126;20.664;2022-08-21T00:30:06;99955.63;;;22.05;71.58
55759;BME280;41678;52.126;20.664;2022-08-21T00:35:31;99946.34;;;21.97;71.38
55759;BME280;41678;52.126;20.664;2022-08-21T00:40:53;99935.66;;;21.82;71.83
55759;BME280;41678;52.126;20.664;2022-08-21T00:46:14;99927.84;;;21.79;71.86
55759;BME280;41678;52.126;20.664;2022-08-21T00:51:54;99930.78;;;21.74;71.71
55759;BME280;41678;52.126;20.664;2022-08-21T00:57:19;99928.25;;;21.73;71.60
55759;BME280;41678;52.126;20.664;2022-08-21T01:02:39;99921.38;;;21.69;71.87
55759;BME280;41678;52.126;20.664;2022-08-21T01:07:59;99926.09;;;21.63;72.01
55759;BME280;41678;52.126;20.664;2022-08-21T01:13:19;99919.50;;;21.55;72.01
55759;BME280;41678;52.126;20.664;2022-08-21T01:18:44;99912.72;;;21.49;72.46
55759;BME280;41678;52.126;20.664;2022-08-21T01:24:05;99913.00;;;21.44;71.95
55759;BME280;41678;52.126;20.664;2022-08-21T01:35:36;99903.56;;;21.39;72.16
55759;BME280;41678;52.126;20.664;2022-08-21T01:40:55;99902.97;;;21.33;72.46
55759;BME280;41678;52.126;20.664;2022-08-21T01:46:16;99897.91;;;21.29;72.47
55759;BME280;41678;52.126;20.664;2022-08-21T01:51:35;99879.50;;;21.24;72.20
55759;BME280;41678;52.126;20.664;2022-08-21T01:56:56;99884.53;;;21.14;72.44
55759;BME280;41678;52.126;20.664;2022-08-21T02:02:17;99884.84;;;21.09;72.23
55759;BME280;41678;52.126;20.664;2022-08-21T02:07:43;99890.94;;;21.12;72.24
55759;BME280;41678;52.126;20.664;2022-08-21T02:13:04;99885.31;;;21.02;72.78
55759;BME280;41678;52.126;20.664;2022-08-21T02:18:24;99885.13;;;21.05;72.41
55759;BME280;41678;52.126;20.664;2022-08-21T02:23:44;99880.13;;;20.99;72.76
55759;BME280;41678;52.126;20.664;2022-08-21T02:29:05;99874.13;;;20.95;72.56
55759;BME280;41678;52.126;20.664;2022-08-21T02:34:25;99862.25;;;20.85;73.06
55759;BME280;41678;52.126;20.664;2022-08-21T02:39:45;99872.97;;;20.85;72.62
55759;BME280;41678;52.126;20.664;2022-08-21T02:45:04;99857.44;;;20.75;72.76
55759;BME280;41678;52.126;20.664;2022-08-21T02:50:27;99859.53;;;20.70;72.68
55759;BME280;41678;52.126;20.664;2022-08-21T02:55:49;99840.59;;;20.59;72.69
55759;BME280;41678;52.126;20.664;2022-08-21T03:01:10;99853.63;;;20.65;72.86
55759;BME280;41678;52.126;20.664;2022-08-21T03:06:30;99851.28;;;20.59;72.82
55759;BME280;41678;52.126;20.664;2022-08-21T03:11:50;99847.03;;;20.56;72.88
55759;BME280;41678;52.126;20.664;2022-08-21T03:17:10;99848.25;;;20.50;72.98
55759;BME280;41678;52.126;20.664;2022-08-21T03:22:30;99850.16;;;20.48;73.26
55759;BME280;41678;52.126;20.664;2022-08-21T03:27:50;99841.72;;;20.40;73.12
55759;BME280;41678;52.126;20.664;2022-08-21T03:33:09;99835.78;;;20.35;73.32
55759;BME280;41678;52.126;20.664;2022-08-21T03:38:30;99835.94;;;20.32;73.30
55759;BME280;41678;52.126;20.664;2022-08-21T03:43:50;99835.56;;;20.23;74.04
55759;BME280;41678;52.126;20.664;2022-08-21T03:49:10;99847.78;;;20.28;73.58
55759;BME280;41678;52.126;20.664;2022-08-21T03:54:30;99845.38;;;20.23;73.42
55759;BME280;41678;52.126;20.664;2022-08-21T03:59:50;99842.91;;;20.20;73.64
55759;BME280;41678;52.126;20.664;2022-08-21T04:05:12;99844.53;;;20.22;73.44
55759;BME280;41678;52.126;20.664;2022-08-21T04:10:35;99853.50;;;20.21;73.50
55759;BME280;41678;52.126;20.664;2022-08-21T04:15:56;99837.81;;;20.15;73.43
55759;BME280;41678;52.126;20.664;2022-08-21T04:21:18;99838.78;;;20.14;73.79
55759;BME280;41678;52.126;20.664;2022-08-21T04:26:38;99842.63;;;20.24;73.56
55759;BME280;41678;52.126;20.664;2022-08-21T04:31:58;99840.91;;;20.23;73.58
55759;BME280;41678;52.126;20.664;2022-08-21T04:37:18;99836.13;;;20.29;73.61
55759;BME280;41678;52.126;20.664;2022-08-21T04:42:53;99848.59;;;20.44;74.02
55759;BME280;41678;52.126;20.664;2022-08-21T04:48:14;99839.13;;;20.38;74.06
55759;BME280;41678;52.126;20.664;2022-08-21T04:59:01;99843.47;;;20.56;75.10
55759;BME280;41678;52.126;20.664;2022-08-21T05:04:28;99847.47;;;20.48;74.51
55759;BME280;41678;52.126;20.664;2022-08-21T05:09:50;99841.75;;;20.55;75.12
55759;BME280;41678;52.126;20.664;2022-08-21T05:15:11;99844.22;;;20.58;75.10
55759;BME280;41678;52.126;20.664;2022-08-21T05:20:33;99824.53;;;20.44;74.98
55759;BME280;41678;52.126;20.664;2022-08-21T05:25:55;99840.97;;;20.52;75.08
55759;BME280;41678;52.126;20.664;2022-08-21T05:31:15;99847.50;;;20.63;75.27
55759;BME280;41678;52.126;20.664;2022-08-21T05:36:35;99842.16;;;20.63;75.39
55759;BME280;41678;52.126;20.664;2022-08-21T05:41:54;99844.63;;;20.66;75.24
55759;BME280;41678;52.126;20.664;2022-08-21T05:47:14;99853.16;;;20.73;75.53
55759;BME280;41678;52.126;20.664;2022-08-21T05:52:53;99847.13;;;20.69;75.32
55759;BME280;41678;52.126;20.664;2022-08-21T05:58:21;99847.69;;;20.74;75.35
55759;BME280;41678;52.126;20.664;2022-08-21T06:03:41;99844.06;;;20.75;75.70
55759;BME280;41678;52.126;20.664;2022-08-21T06:09:02;99858.63;;;20.86;75.51
55759;BME280;41678;52.126;20.664;2022-08-21T06:14:22;99868.78;;;20.95;75.77
55759;BME280;41678;52.126;20.664;2022-08-21T06:19:41;99863.97;;;20.86;75.50
55759;BME280;41678;52.126;20.664;2022-08-21T06:25:01;99862.06;;;20.88;75.32
55759;BME280;41678;52.126;20.664;2022-08-21T06:30:21;99873.16;;;20.96;75.32
55759;BME280;41678;52.126;20.664;2022-08-21T06:35:41;99884.25;;;21.04;75.55
55759;BME280;41678;52.126;20.664;2022-08-21T06:41:01;99883.41;;;21.04;75.59
55759;BME280;41678;52.126;20.664;2022-08-21T06:46:26;99881.97;;;21.13;75.37
55759;BME280;41678;52.126;20.664;2022-08-21T06:51:46;99879.84;;;21.18;75.41
55759;BME280;41678;52.126;20.664;2022-08-21T06:57:06;99874.31;;;21.21;75.73
55759;BME280;41678;52.126;20.664;2022-08-21T07:02:29;99874.22;;;21.37;76.44
55759;BME280;41678;52.126;20.664;2022-08-21T07:07:49;99882.91;;;21.41;75.83
55759;BME280;41678;52.126;20.664;2022-08-21T07:13:09;99871.72;;;21.48;75.71
55759;BME280;41678;52.126;20.664;2022-08-21T07:18:29;99867.97;;;21.65;75.97
55759;BME280;41678;52.126;20.664;2022-08-21T07:23:50;99871.19;;;21.85;76.13
55759;BME280;41678;52.126;20.664;2022-08-21T07:29:10;99860.78;;;21.93;76.37
55759;BME280;41678;52.126;20.664;2022-08-21T07:34:30;99852.50;;;22.11;76.79
55759;BME280;41678;52.126;20.664;2022-08-21T07:39:50;99842.88;;;22.21;76.38
55759;BME280;41678;52.126;20.664;2022-08-21T07:45:11;99841.63;;;22.40;76.59
55759;BME280;41678;52.126;20.664;2022-08-21T07:50:31;99831.78;;;22.54;76.45
55759;BME280;41678;52.126;20.664;2022-08-21T07:55:51;99815.28;;;22.73;76.46
55759;BME280;41678;52.126;20.664;2022-08-21T08:01:11;99827.94;;;22.84;76.62
55759;BME280;41678;52.126;20.664;2022-08-21T08:06:31;99827.06;;;22.96;76.42
55759;BME280;41678;52.126;20.664;2022-08-21T08:11:51;99824.91;;;23.14;76.42
55759;BME280;41678;52.126;20.664;2022-08-21T08:17:11;99823.19;;;23.26;76.21
55759;BME280;41678;52.126;20.664;2022-08-21T08:22:33;99825.59;;;23.42;76.25
55759;BME280;41678;52.126;20.664;2022-08-21T08:27:54;99820.22;;;23.55;76.38
55759;BME280;41678;52.126;20.664;2022-08-21T08:33:14;99812.72;;;23.72;76.09
55759;BME280;41678;52.126;20.664;2022-08-21T08:38:35;99821.84;;;23.94;75.64
55759;BME280;41678;52.126;20.664;2022-08-21T08:43:59;99820.97;;;24.06;75.78
55759;BME280;41678;52.126;20.664;2022-08-21T08:49:31;99823.75;;;24.29;75.63
55759;BME280;41678;52.126;20.664;2022-08-21T09:00:21;99831.00;;;24.51;75.25
55759;BME280;41678;52.126;20.664;2022-08-21T09:05:49;99836.41;;;24.62;75.22
55759;BME280;41678;52.126;20.664;2022-08-21T09:11:32;99837.75;;;24.68;74.98
55759;BME280;41678;52.126;20.664;2022-08-21T09:27:58;99813.09;;;24.86;74.09
55759;BME280;41678;52.126;20.664;2022-08-21T09:33:18;99824.59;;;24.99;73.92
55759;BME280;41678;52.126;20.664;2022-08-21T09:38:38;99811.63;;;25.04;73.99
55759;BME280;41678;52.126;20.664;2022-08-21T09:43:58;99809.06;;;25.14;73.45
55759;BME280;41678;52.126;20.664;2022-08-21T09:49:27;99806.97;;;25.18;73.20
55759;BME280;41678;52.126;20.664;2022-08-21T09:54:51;99810.00;;;25.25;72.34
55759;BME280;41678;52.126;20.664;2022-08-21T10:00:32;99810.50;;;25.30;71.97
55759;BME280;41678;52.126;20.664;2022-08-21T10:11:31;99816.88;;;25.40;71.74
55759;BME280;41678;52.126;20.664;2022-08-21T10:17:42;99803.25;;;25.42;71.62
55759;BME280;41678;52.126;20.664;2022-08-21T10:39:31;99798.78;;;25.75;70.94
55759;BME280;41678;52.126;20.664;2022-08-21T10:45:25;99800.72;;;25.84;70.79
55759;BME280;41678;52.126;20.664;2022-08-21T10:51:06;99800.72;;;25.84;70.68
55759;BME280;41678;52.126;20.664;2022-08-21T10:56:32;99791.75;;;25.84;69.76
55759;BME280;41678;52.126;20.664;2022-08-21T11:02:15;99797.75;;;25.87;68.81
55759;BME280;41678;52.126;20.664;2022-08-21T11:07:43;99797.41;;;25.81;69.40
55759;BME280;41678;52.126;20.664;2022-08-21T11:13:11;99782.59;;;25.75;70.05
55759;BME280;41678;52.126;20.664;2022-08-21T11:18:38;99789.19;;;25.82;69.06
55759;BME280;41678;52.126;20.664;2022-08-21T11:29:33;99781.75;;;25.74;69.49
55759;BME280;41678;52.126;20.664;2022-08-21T11:35:07;99788.34;;;25.82;68.49
55759;BME280;41678;52.126;20.664;2022-08-21T11:40:57;99792.28;;;25.78;69.04
55759;BME280;41678;52.126;20.664;2022-08-21T11:57:55;99786.50;;;25.82;69.01
55759;BME280;41678;52.126;20.664;2022-08-21T12:03:25;99790.91;;;25.83;68.60
55759;BME280;41678;52.126;20.664;2022-08-21T12:08:57;99790.31;;;25.80;68.93
55759;BME280;41678;52.126;20.664;2022-08-21T12:14:18;99790.44;;;25.78;68.77
55759;BME280;41678;52.126;20.664;2022-08-21T12:19:38;99785.28;;;25.75;68.66
55759;BME280;41678;52.126;20.664;2022-08-21T12:25:06;99786.00;;;25.77;68.57
55759;BME280;41678;52.126;20.664;2022-08-21T12:35:47;99785.44;;;25.73;68.96
55759;BME280;41678;52.126;20.664;2022-08-21T12:41:28;99790.91;;;25.83;67.33
55759;BME280;41678;52.126;20.664;2022-08-21T12:46:56;99785.50;;;25.83;67.19
55759;BME280;41678;52.126;20.664;2022-08-21T12:52:27;99777.53;;;25.82;67.36
55759;BME280;41678;52.126;20.664;2022-08-21T12:57:47;99778.16;;;25.85;67.27
55759;BME280;41678;52.126;20.664;2022-08-21T13:03:07;99754.41;;;25.79;66.92
55759;BME280;41678;52.126;20.664;2022-08-21T13:08:27;99778.16;;;25.85;66.99
55759;BME280;41678;52.126;20.664;2022-08-21T13:13:49;99760.97;;;25.86;66.12
55759;BME280;41678;52.126;20.664;2022-08-21T13:19:11;99782.44;;;25.88;66.66
55759;BME280;41678;52.126;20.664;2022-08-21T13:24:37;99766.75;;;25.82;67.09
55759;BME280;41678;52.126;20.664;2022-08-21T13:35:36;99770.53;;;25.91;66.79
55759;BME280;41678;52.126;20.664;2022-08-21T13:48:50;99764.28;;;25.90;66.49
55759;BME280;41678;52.126;20.664;2022-08-21T13:54:21;99767.06;;;26.00;65.68
55759;BME280;41678;52.126;20.664;2022-08-21T13:59:42;99757.53;;;25.96;65.72
55759;BME280;41678;52.126;20.664;2022-08-21T14:05:02;99773.16;;;26.02;66.02
55759;BME280;41678;52.126;20.664;2022-08-21T14:17:40;99777.47;;;26.05;66.21
55759;BME280;41678;52.126;20.664;2022-08-21T14:23:01;99762.38;;;26.02;65.75
55759;BME280;41678;52.126;20.664;2022-08-21T14:28:26;99767.31;;;25.97;65.71
55759;BME280;41678;52.126;20.664;2022-08-21T14:33:46;99772.31;;;26.01;65.97
55759;BME280;41678;52.126;20.664;2022-08-21T14:39:39;99779.09;;;25.96;66.40
55759;BME280;41678;52.126;20.664;2022-08-21T14:45:13;99760.06;;;25.97;65.64
55759;BME280;41678;52.126;20.664;2022-08-21T14:50:33;99754.09;;;25.94;65.97
55759;BME280;41678;52.126;20.664;2022-08-21T14:55:53;99758.09;;;25.99;65.05
55759;BME280;41678;52.126;20.664;2022-08-21T15:01:39;99761.78;;;25.98;65.01
55759;BME280;41678;52.126;20.664;2022-08-21T15:06:59;99751.66;;;25.91;65.58
55759;BME280;41678;52.126;20.664;2022-08-21T15:12:18;99754.94;;;25.94;65.59
55759;BME280;41678;52.126;20.664;2022-08-21T15:17:38;99753.63;;;25.88;65.83
55759;BME280;41678;52.126;20.664;2022-08-21T15:22:58;99749.47;;;25.84;65.61
55759;BME280;41678;52.126;20.664;2022-08-21T15:28:20;99749.38;;;25.86;65.94
55759;BME280;41678;52.126;20.664;2022-08-21T15:33:43;99748.88;;;25.81;66.13
55759;BME280;41678;52.126;20.664;2022-08-21T15:39:02;99764.06;;;25.82;66.45
55759;BME280;41678;52.126;20.664;2022-08-21T15:44:24;99761.03;;;25.75;66.83
55759;BME280;41678;52.126;20.664;2022-08-21T15:49:45;99762.63;;;25.78;66.74
55759;BME280;41678;52.126;20.664;2022-08-21T15:55:06;99764.84;;;25.72;66.72
55759;BME280;41678;52.126;20.664;2022-08-21T16:00:27;99773.94;;;25.71;67.00
55759;BME280;41678;52.126;20.664;2022-08-21T16:05:48;99784.56;;;25.73;66.86
55759;BME280;41678;52.126;20.664;2022-08-21T16:11:11;99779.09;;;25.63;67.38
55759;BME280;41678;52.126;20.664;2022-08-21T16:16:35;99773.34;;;25.56;67.07
55759;BME280;41678;52.126;20.664;2022-08-21T16:21:55;99784.13;;;25.56;67.37
55759;BME280;41678;52.126;20.664;2022-08-21T16:27:15;99781.69;;;25.53;67.61
55759;BME280;41678;52.126;20.664;2022-08-21T16:32:37;99783.94;;;25.48;68.09
55759;BME280;41678;52.126;20.664;2022-08-21T16:37:56;99798.59;;;25.55;68.02
55759;BME280;41678;52.126;20.664;2022-08-21T16:43:16;99795.44;;;25.50;68.50
55759;BME280;41678;52.126;20.664;2022-08-21T16:48:37;99806.69;;;25.55;67.48
55759;BME280;41678;52.126;20.664;2022-08-21T16:53:57;99810.09;;;25.46;68.28
55759;BME280;41678;52.126;20.664;2022-08-21T16:59:18;99813.19;;;25.41;68.16
55759;BME280;41678;52.126;20.664;2022-08-21T17:04:38;99813.81;;;25.34;68.21
55759;BME280;41678;52.126;20.664;2022-08-21T17:09:58;99811.75;;;25.26;68.20
55759;BME280;41678;52.126;20.664;2022-08-21T17:15:22;99810.97;;;25.24;68.56
55759;BME280;41678;52.126;20.664;2022-08-21T17:20:42;99824.09;;;25.17;68.29
55759;BME280;41678;52.126;20.664;2022-08-21T17:26:02;99819.47;;;25.08;68.51
55759;BME280;41678;52.126;20.664;2022-08-21T17:31:22;99825.94;;;25.05;68.47
55759;BME280;41678;52.126;20.664;2022-08-21T17:36:42;99832.19;;;25.06;68.54
55759;BME280;41678;52.126;20.664;2022-08-21T17:42:05;99839.66;;;24.90;68.63
55759;BME280;41678;52.126;20.664;2022-08-21T17:47:27;99851.28;;;24.91;68.39
55759;BME280;41678;52.126;20.664;2022-08-21T17:52:47;99849.31;;;24.82;68.11
55759;BME280;41678;52.126;20.664;2022-08-21T17:58:08;99859.53;;;24.65;68.53
55759;BME280;41678;52.126;20.664;2022-08-21T18:03:31;99856.81;;;24.54;68.66
55759;BME280;41678;52.126;20.664;2022-08-21T18:08:53;99858.72;;;24.40;68.58
55759;BME280;41678;52.126;20.664;2022-08-21T18:14:13;99860.81;;;24.37;69.07
55759;BME280;41678;52.126;20.664;2022-08-21T18:19:33;99866.66;;;24.30;68.90
55759;BME280;41678;52.126;20.664;2022-08-21T18:24:52;99863.06;;;24.18;69.24
55759;BME280;41678;52.126;20.664;2022-08-21T18:30:16;99869.91;;;24.11;69.03
55759;BME280;41678;52.126;20.664;2022-08-21T18:35:36;99869.66;;;24.01;69.35
55759;BME280;41678;52.126;20.664;2022-08-21T18:40:57;99877.34;;;23.95;69.30
55759;BME280;41678;52.126;20.664;2022-08-21T18:46:17;99871.91;;;23.83;69.60
55759;BME280;41678;52.126;20.664;2022-08-21T18:51:37;99869.91;;;23.74;69.57
55759;BME280;41678;52.126;20.664;2022-08-21T18:56:57;99879.41;;;23.67;69.43
55759;BME280;41678;52.126;20.664;2022-08-21T19:02:16;99883.50;;;23.59;69.28
55759;BME280;41678;52.126;20.664;2022-08-21T19:07:37;99885.03;;;23.51;69.70
55759;BME280;41678;52.126;20.664;2022-08-21T19:12:57;99887.19;;;23.45;69.73
55759;BME280;41678;52.126;20.664;2022-08-21T19:18:19;99892.16;;;23.39;69.53
55759;BME280;41678;52.126;20.664;2022-08-21T19:23:39;99889.13;;;23.30;69.95
55759;BME280;41678;52.126;20.664;2022-08-21T19:29:01;99889.88;;;23.19;69.91
55759;BME280;41678;52.126;20.664;2022-08-21T19:34:26;99891.16;;;23.14;69.81
55759;BME280;41678;52.126;20.664;2022-08-21T19:39:47;99886.44;;;23.04;70.02
55759;BME280;41678;52.126;20.664;2022-08-21T19:45:07;99896.78;;;22.98;69.70
55759;BME280;41678;52.126;20.664;2022-08-21T19:50:28;99881.72;;;22.82;70.09
55759;BME280;41678;52.126;20.664;2022-08-21T19:55:47;99892.78;;;22.77;69.77
55759;BME280;41678;52.126;20.664;2022-08-21T20:01:09;99892.13;;;22.74;70.43
55759;BME280;41678;52.126;20.664;2022-08-21T20:06:29;99896.41;;;22.63;70.46
55759;BME280;41678;52.126;20.664;2022-08-21T20:11:51;99888.13;;;22.54;70.41
55759;BME280;41678;52.126;20.664;2022-08-21T20:17:13;99898.38;;;22.47;70.50
55759;BME280;41678;52.126;20.664;2022-08-21T20:22:34;99900.41;;;22.43;70.67
55759;BME280;41678;52.126;20.664;2022-08-21T20:27:54;99892.25;;;22.32;70.38
55759;BME280;41678;52.126;20.664;2022-08-21T20:33:13;99901.66;;;22.25;70.33
55759;BME280;41678;52.126;20.664;2022-08-21T20:38:33;99891.56;;;22.15;70.44
55759;BME280;41678;52.126;20.664;2022-08-21T20:43:54;99895.38;;;22.11;70.73
55759;BME280;41678;52.126;20.664;2022-08-21T20:49:18;99895.13;;;22.01;70.75
55759;BME280;41678;52.126;20.664;2022-08-21T21:00:04;99889.81;;;21.87;70.92
55759;BME280;41678;52.126;20.664;2022-08-21T21:05:26;99899.88;;;21.83;70.79
55759;BME280;41678;52.126;20.664;2022-08-21T21:11:03;99897.81;;;21.74;71.05
55759;BME280;41678;52.126;20.664;2022-08-21T21:16:30;99888.50;;;21.65;70.68
55759;BME280;41678;52.126;20.664;2022-08-21T21:22:02;99880.31;;;21.54;71.14
55759;BME280;41678;52.126;20.664;2022-08-21T21:27:36;99892.06;;;21.51;71.04
55759;BME280;41678;52.126;20.664;2022-08-21T21:32:57;99882.91;;;21.41;71.01
55759;BME280;41678;52.126;20.664;2022-08-21T21:38:36;99888.56;;;21.36;71.13
55759;BME280;41678;52.126;20.664;2022-08-21T22:17:48;99910.03;;;20.91;72.38
55759;BME280;41678;52.126;20.664;2022-08-21T22:23:13;99906.03;;;20.84;72.33
55759;BME280;41678;52.126;20.664;2022-08-21T22:28:38;99898.44;;;20.76;72.63
55759;BME280;41678;52.126;20.664;2022-08-21T22:39:33;99898.91;;;20.68;72.85
55759;BME280;41678;52.126;20.664;2022-08-21T22:44:57;99902.09;;;20.59;72.73
55759;BME280;41678;52.126;20.664;2022-08-21T22:50:18;99900.84;;;20.50;72.65
55759;BME280;41678;52.126;20.664;2022-08-21T22:55:45;99900.16;;;20.46;72.46
55759;BME280;41678;52.126;20.664;2022-08-21T23:06:55;99900.91;;;20.34;73.21
55759;BME280;41678;52.126;20.664;2022-08-21T23:23:25;99909.63;;;20.21;73.21
55759;BME280;41678;52.126;20.664;2022-08-21T23:34:44;99896.22;;;20.07;72.90
55759;BME280;41678;52.126;20.664;2022-08-21T23:46:19;99905.44;;;20.01;73.26
